Time;durP1;ratioP1;P1;durP2;ratioP2;P2;SDS_P1;SDS_P2;PMS_P1;PMS_P2;Temp;Humidity;BMP_temperature;BMP_pressure;BME280_temperature;BME280_humidity;BME280_pressure;Samples;Min_cycle;Max_cycle;Signal;HPM_P1;HPM_P2
2020/12/16 00:01:25;;;;;;;8.75;7.17;;;;;;;-1.03;77.84;97128.06;1761159;81;21181;-55
2020/12/16 00:03:53;;;;;;;9.05;6.83;;;;;;;-1.22;78.24;97133.86;1747285;81;21059;-55
2020/12/16 00:06:21;;;;;;;9.48;7.25;;;;;;;-1.22;78.24;97133.86;1741449;81;21172;-54
2020/12/16 00:08:49;;;;;;;9.63;7.50;;;;;;;-1.35;78.60;97132.36;1736840;81;21614;-53
2020/12/16 00:11:17;;;;;;;10.15;7.72;;;;;;;-1.49;78.95;97124.48;1755448;81;21194;-54
2020/12/16 00:13:45;;;;;;;9.28;7.40;;;;;;;-1.63;79.25;97125.10;1760798;81;21483;-53
2020/12/16 00:16:13;;;;;;;9.23;6.53;;;;;;;-1.71;79.68;97132.00;1763572;81;21050;-54
2020/12/16 00:18:41;;;;;;;10.53;7.75;;;;;;;-1.70;80.13;97134.52;1758781;81;21582;-54
2020/12/16 00:21:08;;;;;;;10.20;7.45;;;;;;;-1.72;80.30;97133.71;1767018;81;21138;-54
2020/12/16 00:23:36;;;;;;;11.00;7.25;;;;;;;-1.75;80.41;97135.02;1754139;81;21201;-54
2020/12/16 00:26:04;;;;;;;9.85;7.45;;;;;;;-1.76;80.47;97131.22;1730918;81;21070;-54
2020/12/16 00:28:31;;;;;;;11.57;6.90;;;;;;;-1.76;80.43;97141.39;1741896;81;21081;-54
2020/12/16 00:30:59;;;;;;;10.63;7.85;;;;;;;-1.74;80.61;97142.24;1746196;81;21128;-54
2020/12/16 00:33:26;;;;;;;8.98;7.33;;;;;;;-1.66;80.38;97140.44;1730558;81;21183;-54
2020/12/16 00:35:54;;;;;;;9.85;7.58;;;;;;;-1.62;80.06;97138.69;1764670;81;22122;-54
2020/12/16 00:38:22;;;;;;;9.03;7.30;;;;;;;-1.62;79.93;97137.42;1746956;81;21085;-54
2020/12/16 00:40:50;;;;;;;10.43;7.87;;;;;;;-1.59;79.72;97133.13;1751793;81;21165;-55
2020/12/16 00:43:17;;;;;;;9.93;7.60;;;;;;;-1.57;79.60;97134.38;1768539;80;21138;-54
2020/12/16 00:45:45;;;;;;;9.15;7.35;;;;;;;-1.55;79.58;97134.75;1754354;81;21073;-55
2020/12/16 00:48:12;;;;;;;12.33;8.40;;;;;;;-1.47;79.46;97135.09;1736497;82;21178;-55
2020/12/16 00:50:40;;;;;;;10.53;7.55;;;;;;;-1.38;79.38;97130.72;1727181;81;21162;-55
2020/12/16 00:53:08;;;;;;;10.25;6.92;;;;;;;-1.24;79.08;97127.95;1709650;84;21181;-55
2020/12/16 00:55:41;;;;;;;10.68;8.00;;;;;;;-1.12;78.74;97126.92;1733768;81;21106;-55
2020/12/16 00:58:10;;;;;;;9.98;7.45;;;;;;;-0.99;78.52;97122.06;1763854;81;21483;-55
2020/12/16 01:00:40;;;;;;;11.08;7.78;;;;;;;-0.88;78.16;97118.05;1744072;81;22246;-55
2020/12/16 01:03:07;;;;;;;10.03;8.13;;;;;;;-0.84;77.93;97118.42;1788688;79;21189;-55
2020/12/16 01:05:36;;;;;;;11.18;7.80;;;;;;;-0.78;77.93;97114.92;1804618;79;21149;-55
2020/12/16 01:08:05;;;;;;;11.27;8.20;;;;;;;-0.74;77.82;97114.02;1794897;79;21475;-55
2020/12/16 01:10:33;;;;;;;10.78;8.25;;;;;;;-0.70;77.73;97112.25;1777701;79;21994;-55
2020/12/16 01:13:01;;;;;;;11.13;8.53;;;;;;;-0.64;77.74;97108.30;1795715;79;21392;-55
2020/12/16 01:15:31;;;;;;;10.03;7.53;;;;;;;-0.60;77.65;97105.67;1776223;80;21312;-55
2020/12/16 01:18:00;;;;;;;10.60;7.53;;;;;;;-0.65;77.35;97110.45;1789107;78;21054;-55
2020/12/16 01:20:41;;;;;;;10.63;7.77;;;;;;;-0.71;77.30;97105.02;1858468;75;22672;-55
2020/12/16 01:23:11;;;;;;;11.33;8.00;;;;;;;-0.85;77.21;97103.16;1821424;77;21041;-55
2020/12/16 01:25:39;;;;;;;10.00;8.13;;;;;;;-0.89;77.43;97101.07;1845682;77;21573;-55
2020/12/16 01:28:07;;;;;;;10.95;7.40;;;;;;;-0.78;77.50;97099.63;1756307;80;21636;-55
2020/12/16 01:30:36;;;;;;;10.53;7.70;;;;;;;-0.73;76.90;97094.45;1815449;79;21591;-55
2020/12/16 01:33:04;;;;;;;9.70;7.37;;;;;;;-0.87;76.65;97095.54;1812082;78;21109;-55
2020/12/16 01:35:33;;;;;;;10.95;7.67;;;;;;;-0.97;76.79;97097.41;1827412;77;21156;-56
2020/12/16 01:38:01;;;;;;;7.83;6.53;;;;;;;-1.05;76.87;97092.86;1828367;77;21172;-55
2020/12/16 01:40:30;;;;;;;9.45;7.08;;;;;;;-1.10;77.11;97095.92;1822176;77;21740;-54
2020/12/16 01:42:58;;;;;;;9.33;7.37;;;;;;;-1.14;77.30;97100.64;1761429;80;21506;-54
2020/12/16 01:45:25;;;;;;;9.10;6.72;;;;;;;-1.12;77.38;97093.81;1814734;79;21604;-55
2020/12/16 01:47:54;;;;;;;10.10;7.47;;;;;;;-1.19;77.43;97099.88;1785825;79;21149;-55
2020/12/16 01:50:23;;;;;;;9.15;7.30;;;;;;;-1.32;77.54;97097.53;1816629;79;26518;-55
2020/12/16 01:52:51;;;;;;;9.00;7.30;;;;;;;-1.46;78.33;97101.98;1755931;79;26280;-55
2020/12/16 01:55:22;;;;;;;10.48;7.78;;;;;;;-1.46;78.33;97101.98;1803706;79;21085;-54
2020/12/16 01:57:53;;;;;;;11.05;7.50;;;;;;;-1.42;78.45;97089.61;1773502;80;21059;-55
2020/12/16 02:00:22;;;;;;;11.48;8.10;;;;;;;-1.35;78.63;97100.53;1720736;82;21533;-55
2020/12/16 02:02:53;;;;;;;10.08;8.30;;;;;;;-1.24;78.25;97095.30;1723425;80;23555;-55
2020/12/16 02:05:34;;;;;;;9.83;7.97;;;;;;;-1.11;77.97;97092.52;1888653;75;22059;-55
2020/12/16 02:08:03;;;;;;;10.68;7.58;;;;;;;-1.08;77.79;97095.91;1818577;77;21041;-55
2020/12/16 02:10:32;;;;;;;;;;;;;;;-1.02;77.46;97095.36;1827856;77;22206;-54
2020/12/16 02:13:00;;;;;;;9.90;7.75;;;;;;;-1.03;77.39;97094.11;1837385;77;20712;-54
2020/12/16 02:15:28;;;;;;;11.43;8.03;;;;;;;-0.98;77.31;97093.60;1799234;79;21098;-54
2020/12/16 02:17:56;;;;;;;9.48;7.30;;;;;;;-0.96;77.04;97087.59;1818725;77;21135;-55
2020/12/16 02:20:24;;;;;;;10.33;7.77;;;;;;;-0.91;76.71;97086.70;1803564;79;21061;-55
2020/12/16 02:22:54;;;;;;;;;;;;;;;-0.91;76.53;97090.08;1799523;79;21144;-54
2020/12/16 02:25:24;;;;;;;10.55;7.47;;;;;;;-0.91;76.29;97088.80;1846944;77;20107;-54
2020/12/16 02:27:53;;;;;;;11.60;8.43;;;;;;;-1.02;76.35;97083.91;1830670;77;21486;-54
2020/12/16 02:30:22;;;;;;;10.60;7.72;;;;;;;-1.10;76.51;97087.01;1815779;79;21065;-54
2020/12/16 02:33:08;;;;;;;13.30;8.35;;;;;;;-1.13;76.58;97082.79;1839232;77;21136;-55
2020/12/16 02:35:38;;;;;;;10.90;8.18;;;;;;;-1.18;76.72;97078.21;1821846;77;21368;-55
2020/12/16 02:38:08;;;;;;;11.35;8.68;;;;;;;-1.14;76.68;97078.55;1838044;77;21164;-55
2020/12/16 02:40:36;;;;;;;12.13;8.98;;;;;;;-1.07;76.44;97080.59;1845123;77;21150;-55
2020/12/16 02:43:04;;;;;;;14.73;8.93;;;;;;;-1.00;76.00;97080.06;1835520;77;21117;-55
2020/12/16 02:45:32;;;;;;;12.07;8.83;;;;;;;-0.98;75.57;97084.69;1821730;77;21043;-55
2020/12/16 02:48:13;;;;;;;12.03;8.10;;;;;;;-0.92;75.27;97085.87;1823143;76;22219;-54
2020/12/16 02:50:41;;;;;;;16.30;9.50;;;;;;;-0.92;75.01;97082.05;1790465;79;20928;-54
2020/12/16 02:53:10;;;;;;;16.90;11.45;;;;;;;-0.89;74.56;97079.86;1794286;79;21134;-55
2020/12/16 02:55:56;;;;;;;24.15;12.65;;;;;;;-0.82;74.17;97087.83;1782445;79;21094;-54
2020/12/16 02:58:25;;;;;;;24.23;14.80;;;;;;;-0.79;73.70;97086.47;1774630;79;21598;-55
2020/12/16 03:00:53;;;;;;;27.07;16.17;;;;;;;-0.73;73.12;97082.99;1807675;79;21142;-54
2020/12/16 03:03:46;;;;;;;31.83;18.20;;;;;;;-0.67;72.92;97085.44;1872935;75;22220;-54
2020/12/16 03:06:22;;;;;;;31.80;18.25;;;;;;;-0.75;72.41;97090.22;1825885;78;21614;-54
2020/12/16 03:09:00;;;;;;;30.30;17.23;;;;;;;-0.80;72.45;97091.17;1890039;76;22250;-54
2020/12/16 03:11:29;;;;;;;28.62;16.48;;;;;;;-0.94;72.81;97093.53;1858964;76;21042;-54
2020/12/16 03:13:57;;;;;;;25.70;14.63;;;;;;;-0.95;73.14;97094.39;1878111;75;21253;-54
2020/12/16 03:16:26;;;;;;;36.50;19.90;;;;;;;-1.04;73.36;97092.42;1878305;75;21546;-54
2020/12/16 03:18:56;;;;;;;30.37;18.17;;;;;;;-1.14;73.63;97093.83;1857491;77;21153;-54
2020/12/16 03:21:25;;;;;;;36.17;19.02;;;;;;;-1.20;73.87;97099.05;1860458;75;21562;-54
2020/12/16 03:23:54;;;;;;;35.03;18.70;;;;;;;-1.13;73.51;97093.42;1876299;75;21109;-54
2020/12/16 03:26:41;;;;;;;34.10;18.23;;;;;;;-0.96;73.27;97086.77;1890115;74;22744;-54
2020/12/16 03:29:13;;;;;;;32.95;17.62;;;;;;;-0.90;73.08;97089.66;1841896;77;21487;-54
2020/12/16 03:31:42;;;;;;;19.10;11.33;;;;;;;-0.81;72.93;97092.86;1842385;77;22062;-54
2020/12/16 03:34:14;;;;;;;29.80;16.15;;;;;;;-0.79;73.40;97083.51;1846694;76;21057;-55
2020/12/16 03:36:55;;;;;;;26.53;15.33;;;;;;;-0.70;73.48;97093.97;1878436;75;22014;-55
2020/12/16 03:39:23;;;;;;;23.92;14.45;;;;;;;-0.69;73.58;97093.11;1817575;77;20915;-55
2020/12/16 03:41:51;;;;;;;22.98;14.35;;;;;;;-0.67;73.39;97082.89;1834649;77;21150;-55
2020/12/16 03:44:20;;;;;;;24.23;13.85;;;;;;;-0.67;73.39;97082.89;1811584;77;20978;-55
2020/12/16 03:46:51;;;;;;;23.57;14.95;;;;;;;-0.64;73.40;97087.91;1811029;77;21163;-55
2020/12/16 03:49:20;;;;;;;21.15;13.38;;;;;;;-0.58;73.20;97081.42;1821149;77;21568;-56
2020/12/16 03:51:52;;;;;;;22.42;13.60;;;;;;;-0.52;73.08;97076.67;1832181;77;21092;-56
2020/12/16 03:54:24;;;;;;;23.07;13.78;;;;;;;-0.41;73.01;97083.24;1824230;77;21350;-56
2020/12/16 03:57:13;;;;;;;23.80;14.18;;;;;;;-0.41;73.01;97083.24;1792899;77;21675;-55
2020/12/16 03:59:54;;;;;;;22.37;13.60;;;;;;;-0.26;72.51;97082.10;1850450;76;22152;-55
2020/12/16 04:02:27;;;;;;;23.32;12.80;;;;;;;-0.24;72.16;97091.83;1805124;78;21119;-55
2020/12/16 04:04:59;;;;;;;19.87;12.50;;;;;;;-0.20;72.06;97089.64;1818394;78;21547;-54
2020/12/16 04:07:28;;;;;;;17.27;11.83;;;;;;;-0.14;71.86;97100.59;1819225;78;21139;-54
2020/12/16 04:09:59;;;;;;;17.80;11.90;;;;;;;-0.14;71.78;97096.31;1815275;78;21115;-54
2020/12/16 04:12:27;;;;;;;20.50;12.05;;;;;;;-0.11;71.69;97112.84;1832241;78;21155;-54
2020/12/16 04:14:56;;;;;;;;;;;;;;;-0.04;71.50;97116.94;1844285;78;21606;-56
2020/12/16 04:17:24;;;;;;;17.92;11.80;;;;;;;-0.03;71.31;97111.42;1814740;78;22237;-55
2020/12/16 04:19:56;;;;;;;14.50;10.65;;;;;;;-0.01;71.13;97110.50;1827820;78;21465;-55
2020/12/16 04:22:25;;;;;;;16.23;11.90;;;;;;;0.04;70.78;97110.86;1812742;77;21060;-55
2020/12/16 04:24:56;;;;;;;17.30;11.48;;;;;;;0.06;70.59;97104.84;1808471;79;21079;-55
2020/12/16 04:27:25;;;;;;;15.93;11.65;;;;;;;0.09;70.26;97111.16;1818831;78;21101;-56
2020/12/16 04:29:54;;;;;;;17.30;12.45;;;;;;;0.09;70.12;97112.44;1840659;78;21342;-54
2020/12/16 04:32:23;;;;;;;18.75;12.07;;;;;;;0.12;69.97;97109.00;1827965;77;21610;-56
2020/12/16 04:34:51;;;;;;;19.67;12.90;;;;;;;0.17;70.23;97113.56;1821788;78;21051;-54
2020/12/16 04:37:19;;;;;;;17.95;12.30;;;;;;;0.22;70.31;97118.13;1812209;78;21138;-54
2020/12/16 04:39:48;;;;;;;15.13;11.43;;;;;;;0.29;70.51;97115.02;1754203;80;21132;-55
2020/12/16 04:42:16;;;;;;;16.20;11.05;;;;;;;0.33;70.21;97102.60;1744720;80;22338;-55
2020/12/16 04:44:44;;;;;;;18.52;12.20;;;;;;;0.36;70.20;97111.44;1757716;80;21059;-55
2020/12/16 04:47:15;;;;;;;18.17;12.50;;;;;;;0.37;70.67;97110.59;1747194;80;21084;-55
2020/12/16 04:49:45;;;;;;;18.15;12.60;;;;;;;0.37;70.67;97110.59;1742447;81;21492;-55
2020/12/16 04:52:14;;;;;;;20.72;13.28;;;;;;;0.40;70.41;97113.07;1755988;81;21536;-54
2020/12/16 04:54:49;;;;;;;20.62;13.03;;;;;;;0.39;70.36;97109.27;1753105;81;21278;-54
2020/12/16 04:57:18;;;;;;;32.88;17.15;;;;;;;0.35;70.17;97114.89;1753046;81;21135;-54
2020/12/16 04:59:47;;;;;;;28.23;16.80;;;;;;;0.28;70.06;97115.88;1753172;81;21155;-55
2020/12/16 05:02:16;;;;;;;39.58;18.20;;;;;;;0.24;70.16;97116.83;1717670;83;21178;-56
2020/12/16 05:05:04;;;;;;;47.87;21.57;;;;;;;0.25;70.20;97114.24;1888666;76;22291;-55
2020/12/16 05:07:34;;;;;;;62.05;24.02;;;;;;;0.13;70.19;97119.17;1835350;77;21541;-55
2020/12/16 05:10:03;;;;;;;55.50;23.35;;;;;;;-0.01;70.32;97121.98;1820524;77;21456;-54
2020/12/16 05:12:31;;;;;;;47.80;22.17;;;;;;;-0.06;70.57;97117.41;1822436;77;21090;-55
2020/12/16 05:14:59;;;;;;;45.20;21.95;;;;;;;-0.07;70.80;97119.55;1849869;77;21072;-55
2020/12/16 05:17:26;;;;;;;43.63;21.70;;;;;;;-0.05;70.64;97125.48;1835787;77;21133;-56
2020/12/16 05:20:07;;;;;;;42.13;19.20;;;;;;;0.00;70.82;97125.40;1890049;75;21875;-55
2020/12/16 05:22:34;;;;;;;37.05;19.70;;;;;;;-0.07;70.88;97122.09;1839766;76;21450;-54
2020/12/16 05:25:02;;;;;;;37.93;19.42;;;;;;;-0.11;71.05;97127.31;1827186;78;21122;-54
2020/12/16 05:27:32;;;;;;;41.68;22.07;;;;;;;-0.12;71.09;97120.08;1852167;75;21636;-54
2020/12/16 05:30:04;;;;;;;58.33;28.55;;;;;;;-0.13;71.10;97126.07;1890025;75;21131;-54
2020/12/16 05:35:33;;;;;;;57.77;28.17;;;;;;;-0.17;71.01;97127.42;1871575;76;22625;-55
2020/12/16 05:38:09;;;;;;;77.45;30.15;;;;;;;-0.19;70.92;97125.73;1823688;78;21639;-55
2020/12/16 05:40:39;;;;;;;85.97;32.78;;;;;;;-0.14;70.92;97122.27;1804808;78;21494;-54
2020/12/16 05:43:07;;;;;;;72.72;30.48;;;;;;;-0.10;70.51;97126.42;1826839;78;21562;-56
2020/12/16 05:45:39;;;;;;;71.47;29.52;;;;;;;-0.10;70.51;97126.42;1808756;79;21000;-55
2020/12/16 05:48:11;;;;;;;69.22;29.30;;;;;;;-0.06;70.34;97129.34;1808227;78;21106;-55
2020/12/16 05:50:51;;;;;;;67.67;27.45;;;;;;;-0.03;70.48;97135.66;1837797;77;21059;-55
2020/12/16 05:53:29;;;;;;;50.25;21.90;;;;;;;0.01;70.46;97138.98;1782474;79;21964;-54
2020/12/16 05:56:00;;;;;;;35.50;20.45;;;;;;;0.04;70.51;97147.41;1817996;78;21579;-54
2020/12/16 05:58:32;;;;;;;42.73;21.05;;;;;;;0.10;70.49;97143.47;1824571;78;21000;-55
2020/12/16 06:01:05;;;;;;;34.15;20.65;;;;;;;0.19;69.95;97150.09;1840542;78;21114;-54
2020/12/16 06:03:38;;;;;;;34.92;19.65;;;;;;;0.19;69.95;97150.09;1812849;77;21484;-55
2020/12/16 06:06:10;;;;;;;31.07;18.90;;;;;;;0.21;69.98;97153.89;1840904;77;21587;-56
2020/12/16 06:08:43;;;;;;;44.15;21.55;;;;;;;0.22;69.94;97156.41;1839881;78;21063;-55
2020/12/16 06:11:12;;;;;;;43.28;22.45;;;;;;;0.24;69.69;97151.28;1827767;78;21074;-54
2020/12/16 06:13:48;;;;;;;40.90;21.48;;;;;;;0.26;69.37;97151.64;1827713;78;21448;-55
2020/12/16 06:16:17;;;;;;;45.23;24.70;;;;;;;0.24;69.23;97147.45;1808527;79;21598;-54
2020/12/16 06:18:45;;;;;;;47.25;25.43;;;;;;;0.23;69.19;97152.14;1817907;78;21467;-55
2020/12/16 06:21:14;;;;;;;52.50;28.50;;;;;;;0.24;69.01;97152.56;1835676;78;21047;-54
2020/12/16 06:23:43;;;;;;;63.17;30.60;;;;;;;0.23;68.94;97153.00;1800063;78;21103;-55
2020/12/16 06:26:15;;;;;;;57.65;27.85;;;;;;;0.25;68.90;97147.87;1753373;80;21131;-55
2020/12/16 06:28:44;;;;;;;51.53;27.20;;;;;;;0.25;68.34;97141.48;1769362;81;21053;-55
2020/12/16 06:31:29;;;;;;;47.83;25.30;;;;;;;0.27;68.46;97147.39;1787832;80;21194;-55
2020/12/16 06:34:02;;;;;;;50.92;25.23;;;;;;;0.30;68.38;97157.09;1764893;80;21131;-56
2020/12/16 06:36:40;;;;;;;46.30;23.83;;;;;;;0.39;68.17;97158.61;1790348;80;21071;-56
2020/12/16 06:39:23;;;;;;;48.90;23.87;;;;;;;0.50;67.90;97153.30;1786071;80;21099;-54
2020/12/16 06:41:58;;;;;;;38.05;21.87;;;;;;;0.54;67.55;97156.17;1768361;80;21071;-56
2020/12/16 06:44:26;;;;;;;44.93;26.23;;;;;;;0.54;67.55;97156.17;1760208;81;21370;-55
2020/12/16 06:46:58;;;;;;;71.50;44.45;;;;;;;0.54;67.75;97156.17;1760565;80;21571;-57
2020/12/16 06:49:32;;;;;;;49.08;29.42;;;;;;;0.53;67.57;97164.72;1778531;80;21151;-55
2020/12/16 06:52:09;;;;;;;38.30;25.12;;;;;;;0.54;67.69;97160.00;1790706;80;21060;-56
2020/12/16 06:54:44;;;;;;;46.28;25.90;;;;;;;0.60;67.53;97161.15;1790955;80;21154;-56
2020/12/16 06:57:22;;;;;;;45.03;25.35;;;;;;;0.68;67.43;97163.55;1761578;80;22105;-55
2020/12/16 06:59:57;;;;;;;36.88;21.57;;;;;;;0.75;67.45;97154.86;1765263;81;21087;-54
2020/12/16 07:02:32;;;;;;;37.53;21.93;;;;;;;0.74;67.51;97169.80;1798126;79;21106;-55
2020/12/16 07:05:03;;;;;;;40.03;23.83;;;;;;;0.69;67.92;97162.66;1789983;79;21606;-55
2020/12/16 07:07:57;;;;;;;30.02;18.30;;;;;;;0.78;68.16;97168.84;1782286;79;21509;-56
2020/12/16 07:10:40;;;;;;;36.15;18.92;;;;;;;0.90;68.10;97161.34;1788367;78;21557;-54
2020/12/16 07:13:23;;;;;;;38.08;21.05;;;;;;;0.89;68.17;97161.78;1792628;78;21087;-55
2020/12/16 07:16:03;;;;;;;42.38;23.42;;;;;;;0.87;68.23;97163.96;1787782;79;21068;-54
2020/12/16 07:18:49;;;;;;;42.40;21.17;;;;;;;0.86;68.66;97169.96;1750429;81;21556;-56
2020/12/16 07:21:20;;;;;;;37.67;19.75;;;;;;;0.91;69.07;97171.53;1760774;79;21117;-55
2020/12/16 07:24:05;;;;;;;39.10;20.05;;;;;;;0.97;69.38;97169.70;1797060;79;21187;-55
2020/12/16 07:26:43;;;;;;;42.27;20.48;;;;;;;1.00;69.74;97169.64;1757709;79;21087;-55
2020/12/16 07:29:32;;;;;;;41.02;22.30;;;;;;;1.12;70.06;97167.23;1769293;79;21051;-54
2020/12/16 07:32:10;;;;;;;46.63;24.52;;;;;;;1.33;70.01;97159.48;1791925;79;21166;-55
2020/12/16 07:34:55;;;;;;;40.65;23.90;;;;;;;1.46;69.74;97171.08;1784249;79;21109;-55
2020/12/16 07:37:25;;;;;;;37.15;21.95;;;;;;;1.57;69.73;97163.98;1766356;80;21203;-55
2020/12/16 07:40:00;;;;;;;44.08;20.20;;;;;;;1.65;69.48;97173.58;1769128;80;21087;-54
2020/12/16 07:42:32;;;;;;;36.00;20.23;;;;;;;1.71;69.41;97165.34;1756433;80;21628;-55
2020/12/16 07:45:02;;;;;;;38.95;17.52;;;;;;;1.69;69.30;97165.38;1762607;79;21154;-55
2020/12/16 07:47:30;;;;;;;22.80;13.50;;;;;;;1.59;69.42;97165.23;1731230;81;21071;-55
2020/12/16 07:49:57;;;;;;;24.23;15.23;;;;;;;1.26;70.24;97168.57;1774195;80;21384;-55
2020/12/16 07:52:30;;;;;;;26.20;15.60;;;;;;;0.99;71.11;97170.08;1738468;81;21107;-54
2020/12/16 07:54:58;;;;;;;22.40;13.83;;;;;;;0.89;71.80;97170.73;1760185;79;21172;-56
2020/12/16 07:57:29;;;;;;;19.73;13.05;;;;;;;0.86;72.37;97181.02;1770352;79;21163;-55
2020/12/16 07:59:58;;;;;;;26.15;14.43;;;;;;;0.83;72.78;97175.14;1776085;79;22551;-55
2020/12/16 08:02:26;;;;;;;;;;;;;;;0.73;73.04;97175.33;1778588;80;21358;-55
2020/12/16 08:04:57;;;;;;;19.65;12.47;;;;;;;0.68;73.38;97177.15;1756135;80;20284;-55
2020/12/16 08:07:26;;;;;;;22.70;12.98;;;;;;;0.75;73.90;97185.97;1755703;81;21120;-55
2020/12/16 08:10:05;;;;;;;18.17;11.65;;;;;;;0.77;73.55;97190.14;1756054;80;21215;-55
2020/12/16 08:12:40;;;;;;;24.55;14.53;;;;;;;0.72;73.84;97195.80;1728710;81;21080;-55
2020/12/16 08:15:17;;;;;;;28.50;14.45;;;;;;;0.66;73.70;97195.50;1756034;80;21335;-55
2020/12/16 08:17:47;;;;;;;19.60;11.95;;;;;;;0.57;74.33;97193.58;1790691;79;21129;-56
2020/12/16 08:20:18;;;;;;;26.85;12.80;;;;;;;0.53;75.15;97185.98;1748128;82;21521;-55
2020/12/16 08:22:48;;;;;;;25.62;14.03;;;;;;;0.38;75.23;97191.83;1764910;81;21092;-55
2020/12/16 08:25:18;;;;;;;20.20;13.08;;;;;;;0.25;75.61;97190.81;1772993;79;21116;-55
2020/12/16 08:27:48;;;;;;;23.95;14.93;;;;;;;0.32;76.17;97203.02;1787023;80;21194;-54
2020/12/16 08:30:19;;;;;;;23.65;11.57;;;;;;;0.46;76.45;97197.63;1782355;80;21178;-54
2020/12/16 08:33:16;;;;;;;18.75;11.70;;;;;;;0.70;76.00;97206.05;1758969;80;21599;-54
2020/12/16 08:35:51;;;;;;;20.43;12.07;;;;;;;0.72;75.47;97208.56;1755115;81;21183;-55
2020/12/16 08:38:35;;;;;;;25.20;13.25;;;;;;;0.66;75.72;97201.06;1756165;80;21047;-55
2020/12/16 08:41:06;;;;;;;28.10;13.00;;;;;;;0.70;75.47;97209.88;1756144;81;21434;-55
2020/12/16 08:43:36;;;;;;;20.23;12.47;;;;;;;0.59;75.95;97210.53;1756188;81;21492;-53
2020/12/16 08:46:13;;;;;;;22.42;12.85;;;;;;;0.65;75.79;97211.69;1770985;80;21163;-55
2020/12/16 08:48:50;;;;;;;32.13;14.80;;;;;;;0.65;75.79;97211.69;1782432;79;21072;-56
2020/12/16 08:51:22;;;;;;;34.45;15.53;;;;;;;0.75;75.77;97215.34;1756177;81;21555;-55
2020/12/16 08:54:04;;;;;;;50.75;15.20;;;;;;;0.90;75.53;97216.27;1728295;80;21205;-56
2020/12/16 08:56:41;;;;;;;34.25;14.05;;;;;;;1.02;75.36;97208.34;1756189;80;20961;-54
2020/12/16 08:59:24;;;;;;;29.55;15.03;;;;;;;1.16;75.03;97205.91;1756136;80;21056;-57
2020/12/16 09:02:06;;;;;;;31.87;15.35;;;;;;;1.29;74.59;97203.47;1757287;80;21042;-55
2020/12/16 09:04:41;;;;;;;30.92;13.05;;;;;;;1.32;74.08;97207.23;1756162;81;21500;-55
2020/12/16 09:07:26;;;;;;;22.95;11.18;;;;;;;1.40;74.34;97209.17;1756140;81;21369;-56
2020/12/16 09:09:55;;;;;;;36.50;14.40;;;;;;;1.52;74.02;97200.80;1749141;81;21217;-55
2020/12/16 09:12:23;;;;;;;59.53;17.45;;;;;;;1.58;73.78;97201.48;1756215;80;21064;-55
2020/12/16 09:14:59;;;;;;;39.65;15.90;;;;;;;1.63;73.45;97202.66;1728721;81;21079;-55
2020/12/16 09:17:29;;;;;;;40.15;15.35;;;;;;;1.62;73.52;97197.95;1750732;81;21579;-56
2020/12/16 09:19:57;;;;;;;46.25;15.40;;;;;;;1.73;73.43;97196.87;1756123;81;21363;-54
2020/12/16 09:22:29;;;;;;;47.40;16.62;;;;;;;1.84;73.03;97196.13;1728061;81;21643;-55
2020/12/16 09:24:59;;;;;;;20.95;12.75;;;;;;;1.84;72.68;97191.88;1756056;81;21509;-54
2020/12/16 09:27:28;;;;;;;20.95;12.88;;;;;;;1.84;72.80;97190.59;1756083;81;21092;-55
2020/12/16 09:29:56;;;;;;;19.97;11.73;;;;;;;1.91;72.66;97190.41;1757182;80;21564;-55
2020/12/16 09:32:27;;;;;;;25.95;12.47;;;;;;;1.95;72.73;97191.57;1787217;79;21501;-54
2020/12/16 09:34:57;;;;;;;25.02;11.90;;;;;;;2.02;72.63;97190.55;1784945;79;21132;-56
2020/12/16 09:37:32;;;;;;;27.82;11.70;;;;;;;2.11;72.49;97192.45;1781494;80;21506;-55
2020/12/16 09:40:11;;;;;;;26.80;11.05;;;;;;;2.19;72.12;97187.97;1781542;79;21492;-55
2020/12/16 09:42:39;;;;;;;44.65;11.93;;;;;;;2.24;71.74;97189.95;1781578;80;21077;-55
2020/12/16 09:45:15;;;;;;;46.17;17.73;;;;;;;2.21;71.58;97187.03;1755153;80;22703;-55
2020/12/16 09:47:44;;;;;;;34.03;15.88;;;;;;;2.21;71.46;97183.64;1750387;82;21092;-55
2020/12/16 09:50:12;;;;;;;;;;;;;;;2.08;71.52;97179.29;1767444;80;21184;-55
2020/12/16 09:52:40;;;;;;;27.33;12.67;;;;;;;2.01;72.07;97180.34;1697609;82;20217;-55
2020/12/16 09:55:22;;;;;;;28.47;13.60;;;;;;;2.06;72.26;97188.73;1750432;82;21511;-56
2020/12/16 09:58:00;;;;;;;25.12;14.25;;;;;;;2.18;72.30;97184.55;1773619;80;21437;-55
2020/12/16 10:00:48;;;;;;;25.88;13.28;;;;;;;2.32;72.08;97185.46;1773177;80;21186;-55
2020/12/16 10:03:20;;;;;;;23.70;12.53;;;;;;;2.47;71.73;97188.03;1781403;79;21066;-56
2020/12/16 10:05:48;;;;;;;34.88;14.28;;;;;;;2.56;71.33;97182.63;1781380;80;21565;-54
2020/12/16 10:08:17;;;;;;;34.55;13.38;;;;;;;2.60;71.13;97181.25;1781564;80;21148;-55
2020/12/16 10:10:45;;;;;;;22.42;13.28;;;;;;;2.65;70.98;97175.55;1781611;79;22031;-55
2020/12/16 10:13:12;;;;;;;18.87;10.93;;;;;;;2.68;71.01;97167.36;1781321;79;21501;-55
2020/12/16 10:15:41;;;;;;;16.77;10.80;;;;;;;2.73;70.90;97164.63;1771924;80;21100;-55
2020/12/16 10:18:09;;;;;;;20.30;11.33;;;;;;;2.63;70.49;97167.08;1751084;80;21068;-55
2020/12/16 10:20:37;;;;;;;27.25;12.05;;;;;;;2.36;70.96;97172.13;1750535;80;21495;-54
2020/12/16 10:23:06;;;;;;;17.82;11.43;;;;;;;2.29;71.66;97182.16;1750828;82;21208;-55
2020/12/16 10:25:34;;;;;;;28.20;12.63;;;;;;;2.35;71.88;97180.26;1751994;80;21800;-56
2020/12/16 10:28:09;;;;;;;23.00;11.18;;;;;;;2.49;71.92;97176.01;1775019;80;21195;-55
2020/12/16 10:30:33;;;;;;;17.85;11.55;;;;;;;2.63;71.69;97174.34;1780966;80;21642;-55
2020/12/16 10:33:01;;;;;;;19.32;10.98;;;;;;;2.75;71.46;97171.40;1781577;80;21056;-55
2020/12/16 10:35:29;;;;;;;21.33;11.15;;;;;;;2.85;71.28;97167.29;1788891;79;21146;-55
2020/12/16 10:37:57;;;;;;;16.50;11.05;;;;;;;2.93;70.96;97171.28;1798981;78;21936;-55
2020/12/16 10:40:26;;;;;;;17.77;11.53;;;;;;;3.01;70.85;97168.92;1799225;78;21577;-55
2020/12/16 10:42:54;;;;;;;20.52;12.23;;;;;;;3.12;70.59;97159.17;1799228;79;21069;-57
2020/12/16 10:45:22;;;;;;;16.85;11.73;;;;;;;3.22;70.60;97154.13;1793492;78;21576;-56
2020/12/16 10:47:55;;;;;;;21.25;11.90;;;;;;;3.35;70.32;97158.88;1767383;81;21627;-55
2020/12/16 10:50:19;;;;;;;18.77;12.20;;;;;;;3.41;69.88;97157.41;1735163;81;21097;-55
2020/12/16 10:52:47;;;;;;;24.43;11.40;;;;;;;3.48;69.80;97155.02;1767263;81;21099;-55
2020/12/16 10:55:15;;;;;;;20.57;12.28;;;;;;;3.56;69.47;97151.75;1735439;82;21136;-54
2020/12/16 10:57:42;;;;;;;15.98;11.25;;;;;;;3.61;68.90;97147.30;1767852;79;21092;-56
2020/12/16 11:00:11;;;;;;;20.63;11.40;;;;;;;3.61;68.89;97156.28;1769002;79;21421;-55
2020/12/16 11:02:39;;;;;;;18.00;11.10;;;;;;;3.61;68.86;97158.85;1767461;81;25131;-55
2020/12/16 11:05:07;;;;;;;22.25;11.88;;;;;;;3.60;69.01;97162.75;1767212;81;21182;-55
2020/12/16 11:07:34;;;;;;;19.95;12.35;;;;;;;3.60;69.15;97161.05;1767745;80;21204;-55
2020/12/16 11:10:03;;;;;;;20.12;13.70;;;;;;;3.64;69.07;97158.75;1767641;81;21115;-55
2020/12/16 11:12:32;;;;;;;19.55;13.10;;;;;;;3.68;68.87;97163.33;1767644;81;22275;-55
2020/12/16 11:15:02;;;;;;;18.50;12.73;;;;;;;3.72;68.86;97156.36;1784857;79;21073;-55
2020/12/16 11:17:31;;;;;;;21.00;13.28;;;;;;;3.75;68.78;97160.97;1783782;79;21068;-55
2020/12/16 11:19:59;;;;;;;23.75;12.95;;;;;;;3.75;68.50;97151.98;1783335;79;22071;-54
2020/12/16 11:22:28;;;;;;;18.05;11.97;;;;;;;3.74;68.61;97155.89;1799195;78;21100;-55
2020/12/16 11:24:56;;;;;;;17.60;11.53;;;;;;;3.75;68.69;97159.69;1799256;78;22245;-55
2020/12/16 11:27:24;;;;;;;21.97;13.03;;;;;;;3.77;68.67;97160.47;1780987;79;21192;-55
2020/12/16 11:29:51;;;;;;;22.05;12.55;;;;;;;3.82;68.65;97159.86;1767526;80;21052;-54
2020/12/16 11:32:19;;;;;;;21.48;13.22;;;;;;;3.92;68.53;97156.53;1768135;79;21049;-55
2020/12/16 11:34:46;;;;;;;23.70;13.35;;;;;;;3.98;68.41;97156.32;1767458;79;21160;-56
2020/12/16 11:37:14;;;;;;;19.30;13.22;;;;;;;3.93;68.19;97154.79;1761825;80;21203;-54
2020/12/16 11:39:43;;;;;;;21.62;14.25;;;;;;;3.90;68.56;97162.17;1761889;80;21087;-56
2020/12/16 11:42:12;;;;;;;23.07;15.50;;;;;;;3.93;68.63;97163.35;1761827;81;21055;-54
2020/12/16 11:44:39;;;;;;;21.95;15.03;;;;;;;3.94;68.74;97165.47;1761771;80;21509;-55
2020/12/16 11:47:10;;;;;;;24.00;15.60;;;;;;;3.92;68.78;97159.55;1789687;80;21099;-55
2020/12/16 11:49:36;;;;;;;23.80;16.17;;;;;;;3.93;68.82;97171.48;1793143;78;21437;-55